»·PEaware :: N582WD KSAN-KLAS

N582WD :: KSAN-KLAS

FLIGHT INFORMATION

Flight Status: Arrived
Operator: Privately registered:
United States
More flights under this callsign
Pilot: Robert N. (17753)
Aircraft: ECLIPSE 500
(EA50)
More flights by this aircraft type
Origin: KSAN San Diego Intl-Lindbergh
United States
Destination: KLAS McCarran Intl
United States
More flights between these airports :: More routes between these airports
Route: +PADRZ2 CHKNN SEBBY/N0378F290 YELAH MISEN KEPEC6
File this flight plan on PilotEdge
Remarks: RMK / SIMBRIEF
Altitude:
(Current/Filed)
28,000ft
Speed:
(Current/Filed)
377kts
Departed: 05-Jul-20 04:15 PM
Arrived: 05-Jul-20 05:13 PM
Distance/Time
Traveled:
226nm/0:58
Distance/Time
To Go:
Arrived

Flight Plot

Page will automatically refresh every two minutes.

Flight plan parsing failed; only flown route is shown


Map Options




Map Legend


Flown Route
Filed Route
Departure Airport
Arrival Airport
Navaid (VOR, NDB)
Fix

Horizontal Profiles

Position Reports

Time Latitude Longitude Heading Altitude Ground
Speed
05-Jul-20 15:39 32.734547 -117.186418 195 20ft 0kts
05-Jul-20 15:40 32.734547 -117.186418 195 20ft 0kts
05-Jul-20 15:42 32.733322 -117.178179 17 20ft 0kts
05-Jul-20 15:43 32.733322 -117.178179 17 20ft 0kts
05-Jul-20 15:44 32.733322 -117.178179 17 20ft 0kts
05-Jul-20 15:45 32.733322 -117.178179 17 20ft 0kts
05-Jul-20 15:46 32.733322 -117.178179 17 20ft 0kts
05-Jul-20 15:47 32.733322 -117.178179 17 20ft 0kts
05-Jul-20 15:48 32.733322 -117.178179 17 20ft 0kts
05-Jul-20 15:49 32.733322 -117.178179 17 20ft 0kts
05-Jul-20 15:50 32.733322 -117.178179 17 20ft 0kts
05-Jul-20 15:51 32.733322 -117.178179 17 20ft 0kts
05-Jul-20 15:52 32.733322 -117.178179 17 20ft 0kts
05-Jul-20 15:53 32.733322 -117.178179 17 20ft 0kts
05-Jul-20 15:54 32.733605 -117.178700 284 20ft 8kts
05-Jul-20 15:55 32.732205 -117.179198 108 20ft 13kts
05-Jul-20 15:56 32.731344 -117.175788 106 20ft 2kts
05-Jul-20 15:57 32.731195 -117.175530 151 20ft 0kts
05-Jul-20 15:58 32.731195 -117.175530 151 20ft 0kts
05-Jul-20 15:59 32.731195 -117.175530 151 20ft 0kts
05-Jul-20 16:00 32.732148 -117.176759 328 20ft 14kts
05-Jul-20 16:02 32.733535 -117.179565 8 20ft 5kts
05-Jul-20 16:03 32.733481 -117.178492 200 20ft 0kts
05-Jul-20 16:04 32.733481 -117.178492 200 20ft 0kts
05-Jul-20 16:05 32.733481 -117.178492 200 20ft 0kts
05-Jul-20 16:06 32.733481 -117.178492 200 20ft 0kts
05-Jul-20 16:07 32.733481 -117.178492 200 20ft 0kts
05-Jul-20 16:08 32.733612 -117.178794 316 20ft 11kts
05-Jul-20 16:09 32.732808 -117.178652 110 20ft 7kts
05-Jul-20 16:10 32.731663 -117.176488 137 20ft 0kts
05-Jul-20 16:11 32.731292 -117.175844 131 20ft 0kts
05-Jul-20 16:12 32.731148 -117.175683 141 20ft 0kts
05-Jul-20 16:13 32.730156 -117.175641 286 20ft 7kts
05-Jul-20 16:14 32.730201 -117.175834 285 20ft 2kts
05-Jul-20 16:15 32.738797 -117.206387 305 567ft 168kts
05-Jul-20 16:16 32.769326 -117.261123 301 2989ft 216kts
05-Jul-20 16:17 32.801745 -117.322796 308 5871ft 226kts
05-Jul-20 16:17 32.834386 -117.372656 307 8037ft 235kts
05-Jul-20 16:19 32.882738 -117.447349 306 10296ft 267kts
05-Jul-20 16:20 32.930430 -117.521452 305 11733ft 296kts
05-Jul-20 16:20 32.972816 -117.587571 306 13050ft 306kts
05-Jul-20 16:22 33.033722 -117.682761 306 14763ft 314kts
05-Jul-20 16:22 33.082012 -117.748280 318 15846ft 321kts
05-Jul-20 16:23 33.150555 -117.817858 319 17038ft 326kts
05-Jul-20 16:24 33.220848 -117.888234 320 18095ft 332kts
05-Jul-20 16:25 33.292777 -117.958401 320 19082ft 337kts
05-Jul-20 16:26 33.365786 -118.029781 320 19978ft 341kts
05-Jul-20 16:27 33.449097 -118.063988 27 20739ft 345kts
05-Jul-20 16:28 33.527367 -117.998567 24 21436ft 348kts
05-Jul-20 16:29 33.618356 -117.957630 18 22086ft 351kts
05-Jul-20 16:30 33.711375 -117.921401 17 22664ft 355kts
05-Jul-20 16:31 33.785238 -117.844909 43 22960ft 350kts
05-Jul-20 16:32 33.856778 -117.765699 41 22953ft 350kts
05-Jul-20 16:33 33.929073 -117.687818 41 22951ft 351kts
05-Jul-20 16:34 34.002456 -117.608910 40 22959ft 357kts
05-Jul-20 16:35 34.076848 -117.528804 40 22965ft 361kts
05-Jul-20 16:36 34.151905 -117.447776 40 22972ft 364kts
05-Jul-20 16:37 34.227575 -117.365892 40 22973ft 366kts
05-Jul-20 16:38 34.303283 -117.283747 41 22987ft 366kts
05-Jul-20 16:39 34.378494 -117.201937 41 22991ft 359kts
05-Jul-20 16:40 34.452265 -117.121496 41 22991ft 354kts
05-Jul-20 16:41 34.525037 -117.041927 41 22997ft 351kts
05-Jul-20 16:42 34.597231 -116.962837 41 22980ft 350kts
05-Jul-20 16:43 34.669578 -116.883369 41 22951ft 354kts
05-Jul-20 16:44 34.743588 -116.801869 41 22945ft 363kts
05-Jul-20 16:45 34.818714 -116.718927 41 22945ft 367kts
05-Jul-20 16:46 34.894526 -116.635004 41 22795ft 365kts
05-Jul-20 16:47 34.966935 -116.554654 41 21789ft 349kts
05-Jul-20 16:48 35.038594 -116.474955 41 20880ft 349kts
05-Jul-20 16:49 35.110025 -116.394315 44 19978ft 349kts
05-Jul-20 16:50 35.177430 -116.309923 45 19076ft 341kts
05-Jul-20 16:51 35.243244 -116.227368 45 18205ft 335kts
05-Jul-20 16:52 35.308515 -116.145297 45 17400ft 335kts
05-Jul-20 16:53 35.373754 -116.063052 45 16594ft 334kts
05-Jul-20 16:54 35.438132 -115.981707 45 15785ft 326kts
05-Jul-20 16:55 35.500632 -115.902556 46 14982ft 321kts
05-Jul-20 16:56 35.562340 -115.824194 46 14181ft 318kts
05-Jul-20 16:57 35.623731 -115.746063 46 13378ft 317kts
05-Jul-20 16:58 35.684423 -115.668624 47 13055ft 313kts
05-Jul-20 16:59 35.745008 -115.591170 46 13054ft 316kts
05-Jul-20 17:00 35.830215 -115.571241 3 13054ft 321kts
05-Jul-20 17:01 35.920066 -115.566386 3 13039ft 322kts
05-Jul-20 17:02 35.985163 -115.517638 68 12358ft 286kts
05-Jul-20 17:03 36.014167 -115.428151 69 11352ft 277kts
05-Jul-20 17:04 36.028512 -115.339729 96 10720ft 263kts
05-Jul-20 17:05 36.022069 -115.250350 97 9623ft 254kts
05-Jul-20 17:06 36.015988 -115.164540 96 8523ft 248kts
05-Jul-20 17:07 36.038558 -115.095043 21 7319ft 245kts
05-Jul-20 17:08 36.099236 -115.065545 21 5814ft 227kts
05-Jul-20 17:09 36.145713 -115.087946 300 4107ft 193kts
05-Jul-20 17:10 36.132077 -115.134782 225 2993ft 124kts
05-Jul-20 17:11 36.107250 -115.152124 203 2388ft 93kts
05-Jul-20 17:12 36.089572 -115.162403 220 2184ft 18kts
05-Jul-20 17:13 36.089318 -115.163523 295 2184ft 0kts
05-Jul-20 17:14 36.089406 -115.163751 295 2184ft 4kts
05-Jul-20 17:15 36.093879 -115.162093 26 2184ft 24kts
05-Jul-20 17:16 36.096953 -115.160348 25 2184ft 20kts
05-Jul-20 17:17 36.098915 -115.160718 26 2184ft 0kts

Navigation Log

Ident Type
Flight plan parsing failed, navigation log unavailable